Carmel Valley, CA

10:55 AM PDT on September 16, 2014 (GMT -0700)
Monterey Peninsula | Change Station
CLOSE
Current Station
Airport
Location: Monterey,
Elevation: 253 ft
Nearby Weather Stations

Elev 253 ft 36.59 °N, 121.84 °W | Updated 1 hour ago

Clear
Clear
71 °F
Feels Like 71 °F
N
5
Wind Variable Wind from NW

Today
High -- | Low -- °F
--% Chance of Precip.
Yesterday
High -- | Low -- °F
Precip. -- in
6:49 AM 7:12 PM
Last Quarter, 44% visible
Pressure 29.95 in
Visibility 10.0 miles
Clouds Clear
Dew Point 51 °F
Humidity 49%
Rainfall 0.00 in
Snow Depth 0 in , 3 in , 0 in
UV 4 out of 12
Pollen 5.20 out of 12
Air Quality Not available.
Flu Activity Not available.
METAR KMRY 161654Z 32004KT 10SM CLR 22/11 A2992 RMK AO2 SLP142 T02170106

More Conditions Fewer Conditions

Pressure 29.95 in
Visibility 10.0 miles
Clouds Clear
Dew Point 51 °F
Humidity 49%
Rainfall 0.00 in
Snow Depth 0 in , 3 in , 0 in
UV 4 out of 12
Pollen 5.20 out of 12
Air Quality Not available.
Flu Activity Not available.
METAR KMRY 161654Z 32004KT 10SM CLR 22/11 A2992 RMK AO2 SLP142 T02170106

More Conditions Fewer Conditions

10-Day Weather Forecast

Almanac

Astronomy

Sep. 16, 2014 Rise Set
Actual Time 6:49 AM PDT 7:12 PM PDT
Civil Twilight 6:24 AM PDT 7:38 PM PDT
Nautical Twilight 5:53 AM PDT 8:08 PM PDT
Astronomical Twilight 5:22 AM PDT 8:39 PM PDT
Moon 12:11 AM PDT 2:33 PM PDT
Length of Visible Light 13h 14m
Length of Day
12h 22m
Tomorrow will be 2m 16s shorter.
Last Quarter, 44% of the Moon is Illuminated
Today
Last Quarter
Sep 24
New
Oct 1
First Quarter
Oct 8
Full
Oct 15
Last Quarter

Today's Extremes

State Highs State Lows

Community

WunderPhotos

Upload Photos

1,753,843 photos uploaded!

Nearby

Snow Depth

Station Depth Elevation
Forestdale Creek 0 in 8029 ft
CSS Lab 3 in 6900 ft
Adin Mountain 0 in 6200 ft
Spratt Creek 0 in 6200 ft
Blue Lakes 0 in 8000 ft

Earthquake Activity

City Distance Mag. Time & Date
No recent earthquake activity has been reported nearby.
Minimum magnitude displayed is 2.5.

Coastal Water Temperatures

Place Temperature
Monterey, CA 57.9 °F
Port San Luis, CA 62.1 °F

Nearby Weather Stations